Time;durP1;ratioP1;P1;durP2;ratioP2;P2;SDS_P1;SDS_P2;PMS_P1;PMS_P2;Temp;Humidity;BMP_temperature;BMP_pressure;BME280_temperature;BME280_humidity;BME280_pressure;Samples;Min_cycle;Max_cycle;Signal;HPM_P1;HPM_P2
2021/05/08 00:00:07;;;;;;;11.25;4.40;;;12.70;99.90;;;12.14;100.00;100982.97;4072713;29;20513;-68
2021/05/08 00:02:08;;;;;;;9.25;4.47;;;12.80;99.90;;;12.29;100.00;100990.28;4072883;29;20524;-68
2021/05/08 00:04:09;;;;;;;12.23;4.15;;;12.80;99.90;;;12.36;100.00;100986.00;4072249;29;20036;-69
2021/05/08 00:06:12;;;;;;;15.02;5.07;;;12.80;99.90;;;12.46;100.00;100990.16;4072424;29;20088;-68
2021/05/08 00:08:13;;;;;;;10.40;4.60;;;12.90;99.90;;;12.44;100.00;100986.00;4066701;29;20028;-68
2021/05/08 00:10:17;;;;;;;8.70;4.07;;;12.90;99.90;;;12.49;100.00;100994.28;4055814;29;20512;-68
2021/05/08 00:12:18;;;;;;;10.10;3.90;;;12.80;99.90;;;12.43;100.00;100987.81;4057442;29;20024;-68
2021/05/08 00:14:19;;;;;;;8.95;4.22;;;12.90;99.90;;;12.41;100.00;100979.22;4071434;29;20430;-68
2021/05/08 00:16:19;;;;;;;12.45;4.10;;;12.80;99.90;;;12.45;100.00;100990.31;4072574;29;20043;-68
2021/05/08 00:18:20;;;;;;;8.40;4.65;;;12.90;99.90;;;12.48;100.00;100997.94;4072549;29;20028;-68
2021/05/08 00:20:21;;;;;;;7.32;4.18;;;12.90;99.90;;;12.44;100.00;100983.38;4072253;29;20071;-68
2021/05/08 00:22:22;;;;;;;14.05;5.63;;;12.80;99.90;;;12.42;100.00;100980.06;4072440;29;20064;-68
2021/05/08 00:24:23;;;;;;;11.82;4.82;;;12.90;99.90;;;12.48;100.00;100979.41;4072446;29;20047;-68
2021/05/08 00:26:24;;;;;;;6.93;3.95;;;12.90;99.90;;;12.46;100.00;100986.66;4072434;29;20115;-68
2021/05/08 00:28:25;;;;;;;15.05;5.53;;;12.90;99.90;;;12.55;100.00;100973.28;4072366;29;20079;-68
2021/05/08 00:30:26;;;;;;;12.73;4.57;;;13.00;99.90;;;12.63;100.00;100969.84;4072241;29;20016;-68
2021/05/08 00:32:27;;;;;;;9.15;4.85;;;13.00;99.90;;;12.50;100.00;100953.63;4071227;29;20064;-68
2021/05/08 00:34:28;;;;;;;9.32;4.40;;;13.00;99.90;;;12.65;100.00;100959.91;4072097;29;20032;-68
2021/05/08 00:36:29;;;;;;;10.60;4.93;;;13.00;99.90;;;12.68;100.00;100962.25;4072317;29;20043;-68
2021/05/08 00:38:30;;;;;;;9.30;5.07;;;13.10;99.90;;;12.55;100.00;100946.00;4072237;29;20407;-68
2021/05/08 00:40:31;;;;;;;10.15;5.03;;;13.10;99.90;;;12.58;100.00;100961.56;4072374;29;20103;-68
2021/05/08 00:42:31;;;;;;;10.02;4.57;;;13.00;99.90;;;12.60;100.00;100951.66;4072362;29;20107;-68
2021/05/08 00:44:32;;;;;;;14.63;5.68;;;13.00;99.90;;;12.61;100.00;100948.81;4072180;29;20558;-68
2021/05/08 00:46:33;;;;;;;11.82;5.88;;;13.10;99.90;;;12.81;100.00;100948.53;4072113;29;20040;-68
2021/05/08 00:48:34;;;;;;;10.38;4.93;;;13.10;99.90;;;12.84;100.00;100938.44;4072268;29;20025;-68
2021/05/08 00:50:36;;;;;;;13.68;5.18;;;13.20;99.90;;;12.83;100.00;100926.19;4072277;29;20032;-68
2021/05/08 00:52:38;;;;;;;10.15;5.95;;;13.30;99.90;;;12.96;100.00;100931.78;4072213;29;20036;-68
2021/05/08 00:54:39;;;;;;;11.68;6.07;;;13.30;99.90;;;12.88;100.00;100925.66;4070932;29;20032;-68
2021/05/08 00:56:41;;;;;;;12.60;6.40;;;13.30;99.90;;;12.76;100.00;100918.06;4072407;29;20032;-68
2021/05/08 00:58:43;;;;;;;11.23;5.40;;;13.30;99.90;;;12.76;100.00;100920.72;4071139;29;20043;-68
2021/05/08 01:00:44;;;;;;;15.85;6.80;;;13.30;99.90;;;12.83;100.00;100914.75;4072123;29;20036;-68
2021/05/08 01:02:45;;;;;;;18.83;7.07;;;13.30;99.90;;;12.82;100.00;100898.03;4072050;29;20028;-68
2021/05/08 01:04:46;;;;;;;10.52;6.25;;;13.30;99.90;;;12.88;100.00;100913.25;4071537;29;20192;-68
2021/05/08 01:06:48;;;;;;;12.88;6.18;;;13.30;99.90;;;12.91;100.00;100922.69;4072055;29;20020;-68
2021/05/08 01:08:49;;;;;;;15.07;7.38;;;13.40;99.90;;;12.91;100.00;100920.88;4051605;29;20028;-68
2021/05/08 01:10:51;;;;;;;16.10;9.00;;;13.40;99.90;;;12.95;100.00;100916.91;4058385;29;20029;-69
2021/05/08 01:12:53;;;;;;;15.82;7.78;;;13.40;99.90;;;12.99;100.00;100907.63;4064877;29;20024;-68
2021/05/08 01:14:54;;;;;;;21.38;9.73;;;13.40;99.90;;;13.06;100.00;100918.38;4074195;29;20096;-68
2021/05/08 01:16:55;;;;;;;22.38;10.10;;;13.40;99.90;;;13.07;100.00;100907.63;4075271;29;20039;-68
2021/05/08 01:18:57;;;;;;;18.58;9.32;;;13.40;99.90;;;13.04;100.00;100907.13;4074936;29;20028;-68
2021/05/08 01:20:59;;;;;;;17.85;9.45;;;13.50;99.90;;;13.09;100.00;100908.31;4073998;29;20028;-68
2021/05/08 01:23:00;;;;;;;20.73;9.73;;;13.50;99.90;;;13.06;100.00;100903.31;4074107;29;20035;-68
2021/05/08 01:25:04;;;;;;;22.48;9.73;;;13.60;99.90;;;13.01;100.00;100900.34;4075146;29;20036;-68
2021/05/08 01:27:05;;;;;;;25.67;10.82;;;13.50;99.90;;;13.07;100.00;100902.34;4074996;29;20080;-68
2021/05/08 01:29:07;;;;;;;19.02;7.97;;;13.60;99.90;;;13.17;100.00;100899.53;4075203;29;20516;-68
2021/05/08 01:31:09;;;;;;;27.90;10.98;;;13.50;99.90;;;13.22;100.00;100899.84;4075212;29;20020;-68
2021/05/08 01:33:10;;;;;;;23.75;10.45;;;13.60;99.90;;;13.18;100.00;100899.34;4075064;29;20025;-68
2021/05/08 01:35:12;;;;;;;23.35;9.90;;;13.60;99.90;;;13.10;100.00;100893.25;4074630;29;20031;-68
2021/05/08 01:37:13;;;;;;;23.85;10.52;;;13.60;99.90;;;13.13;100.00;100888.44;4075008;29;20497;-68
2021/05/08 01:39:14;;;;;;;22.58;10.23;;;13.70;99.90;;;13.15;100.00;100890.91;4074948;29;20032;-68
2021/05/08 01:41:15;;;;;;;19.95;10.07;;;13.70;99.90;;;13.18;100.00;100888.75;4073709;29;20067;-68
2021/05/08 01:43:16;;;;;;;17.23;9.95;;;13.70;99.90;;;13.20;100.00;100892.06;4074892;29;20547;-68
2021/05/08 01:45:19;;;;;;;20.42;9.68;;;13.70;99.90;;;13.25;100.00;100887.09;4074858;29;20044;-68
2021/05/08 01:47:20;;;;;;;24.27;9.68;;;13.70;99.90;;;13.29;100.00;100888.38;4073562;29;20032;-68
2021/05/08 01:49:21;;;;;;;26.35;10.07;;;13.70;99.90;;;13.20;100.00;100885.94;4074630;29;20024;-68
2021/05/08 01:51:22;;;;;;;24.05;10.60;;;13.70;99.90;;;13.25;100.00;100881.78;4074617;29;20052;-68
2021/05/08 01:53:23;;;;;;;21.88;9.85;;;13.70;99.90;;;13.30;100.00;100878.63;4074798;29;20238;-68
2021/05/08 01:55:26;;;;;;;24.40;11.05;;;13.70;99.90;;;13.11;100.00;100877.16;4073750;29;20113;-68
2021/05/08 01:57:27;;;;;;;20.55;8.82;;;13.70;99.90;;;13.20;100.00;100873.50;4073569;29;20088;-68
2021/05/08 01:59:28;;;;;;;19.30;9.00;;;13.80;99.90;;;13.19;100.00;100874.53;4074609;29;20040;-68
2021/05/08 02:01:29;;;;;;;23.45;10.40;;;13.70;99.90;;;13.19;100.00;100866.56;4074559;29;20036;-68
2021/05/08 02:03:30;;;;;;;23.88;10.02;;;13.70;99.90;;;13.32;100.00;100865.22;4074426;29;20440;-68
2021/05/08 02:05:34;;;;;;;24.05;10.27;;;13.70;99.90;;;13.32;100.00;100868.66;4074292;29;20052;-68
2021/05/08 02:07:35;;;;;;;22.10;10.50;;;13.80;99.90;;;13.28;100.00;100859.44;4073540;29;20048;-68
2021/05/08 02:09:36;;;;;;;26.88;9.88;;;13.80;99.90;;;13.36;100.00;100863.88;4059059;29;20041;-68
2021/05/08 02:11:37;;;;;;;29.17;10.52;;;13.80;99.90;;;13.36;100.00;100863.88;4058982;29;20029;-68
2021/05/08 02:13:39;;;;;;;22.02;9.90;;;13.80;99.90;;;13.41;100.00;100867.66;4069720;29;20040;-68
2021/05/08 02:15:40;;;;;;;21.42;8.85;;;13.80;99.90;;;13.30;100.00;100866.22;4074203;29;20119;-68
2021/05/08 02:17:42;;;;;;;26.83;10.38;;;13.80;99.90;;;13.37;100.00;100862.88;4074384;29;20036;-68
2021/05/08 02:19:43;;;;;;;23.95;9.48;;;13.80;99.90;;;13.40;100.00;100854.59;4073353;29;20127;-68
2021/05/08 02:21:44;;;;;;;26.83;9.80;;;13.90;99.90;;;13.43;100.00;100859.53;4073966;29;20400;-68
2021/05/08 02:23:45;;;;;;;24.00;9.50;;;13.80;99.90;;;13.26;100.00;100840.25;4073986;29;20029;-68
2021/05/08 02:25:46;;;;;;;23.05;10.13;;;13.80;99.90;;;13.37;100.00;100849.63;4074487;29;20035;-68
2021/05/08 02:27:47;;;;;;;20.95;8.90;;;13.90;99.90;;;13.38;100.00;100856.59;4074331;29;20020;-68
2021/05/08 02:29:48;;;;;;;21.48;9.45;;;13.90;99.90;;;13.37;100.00;100853.09;4074192;29;20035;-68
2021/05/08 02:31:49;;;;;;;25.73;10.02;;;13.90;99.90;;;13.22;100.00;100842.41;4074087;29;20403;-68
2021/05/08 02:33:50;;;;;;;24.38;9.93;;;13.90;99.90;;;13.21;100.00;100835.44;4074196;29;20032;-68
2021/05/08 02:35:51;;;;;;;27.80;10.15;;;13.80;99.90;;;13.31;100.00;100840.53;4074224;29;20043;-68
2021/05/08 02:37:55;;;;;;;20.92;9.55;;;13.80;99.90;;;13.28;100.00;100844.38;4074255;29;20024;-68
2021/05/08 02:39:56;;;;;;;19.42;9.95;;;13.80;99.90;;;13.28;100.00;100831.13;4074051;29;20031;-68
2021/05/08 02:41:57;;;;;;;21.17;9.43;;;13.90;99.90;;;13.29;100.00;100832.75;4074089;29;20050;-68
2021/05/08 02:43:57;;;;;;;22.58;9.80;;;13.80;99.90;;;13.35;100.00;100827.78;4074160;29;20040;-68
2021/05/08 02:45:58;;;;;;;22.33;9.88;;;13.80;99.90;;;13.38;100.00;100830.88;4074002;29;20595;-68
2021/05/08 02:47:59;;;;;;;23.60;9.38;;;13.90;99.90;;;13.47;100.00;100834.38;4074075;29;20020;-68
2021/05/08 02:50:00;;;;;;;21.60;9.00;;;14.00;99.90;;;13.46;100.00;100828.22;4073797;29;20074;-68
2021/05/08 02:52:01;;;;;;;19.23;8.73;;;13.90;99.90;;;13.47;100.00;100823.75;4073961;29;20032;-68
2021/05/08 02:54:02;;;;;;;21.85;10.90;;;13.90;99.90;;;13.46;100.00;100822.09;4073886;29;20036;-68
2021/05/08 02:56:03;;;;;;;29.50;11.43;;;13.90;99.90;;;13.44;100.00;100818.81;4072765;29;20517;-68
2021/05/08 02:58:04;;;;;;;25.95;9.82;;;13.90;99.90;;;13.47;100.00;100816.63;4073818;29;20044;-68
2021/05/08 03:00:09;;;;;;;25.25;9.10;;;13.90;99.90;;;13.47;100.00;100807.88;4073683;29;20488;-68
2021/05/08 03:02:10;;;;;;;28.65;9.63;;;14.00;99.90;;;13.50;100.00;100815.47;4072534;29;20032;-68
2021/05/08 03:04:10;;;;;;;30.10;10.18;;;14.00;99.90;;;13.49;100.00;100805.84;4072052;29;20070;-68
2021/05/08 03:06:11;;;;;;;23.58;9.13;;;14.00;99.90;;;13.45;100.00;100812.50;4072560;29;20101;-68
2021/05/08 03:08:14;;;;;;;27.00;9.55;;;13.90;99.90;;;13.43;100.00;100803.91;4067989;29;20036;-68
2021/05/08 03:10:15;;;;;;;26.05;10.75;;;14.00;99.90;;;13.45;100.00;100799.25;4057948;29;20033;-69
2021/05/08 03:12:16;;;;;;;27.42;10.13;;;13.90;99.90;;;13.44;100.00;100797.59;4058201;29;20028;-68
2021/05/08 03:14:18;;;;;;;24.45;11.07;;;14.00;99.90;;;13.44;100.00;100797.59;4073562;29;20535;-68
2021/05/08 03:16:18;;;;;;;23.50;10.00;;;14.00;99.90;;;13.42;100.00;100794.28;4073569;29;20024;-68
2021/05/08 03:18:19;;;;;;;29.02;10.45;;;14.00;99.90;;;13.44;100.00;100801.06;4073218;29;20055;-68
2021/05/08 03:20:22;;;;;;;29.38;9.35;;;13.90;99.90;;;13.42;100.00;100794.28;4073421;29;20499;-68
2021/05/08 03:22:23;;;;;;;20.52;10.35;;;13.90;99.90;;;13.45;100.00;100780.69;4073478;29;20039;-68
2021/05/08 03:24:24;;;;;;;26.77;10.15;;;14.00;99.90;;;13.51;100.00;100794.06;4073214;29;20042;-68
2021/05/08 03:26:25;;;;;;;25.05;10.40;;;13.90;99.90;;;13.48;100.00;100789.13;4073375;29;20039;-68
2021/05/08 03:28:26;;;;;;;28.02;9.27;;;14.00;99.90;;;13.43;100.00;100793.28;4072146;29;20028;-68
2021/05/08 03:30:27;;;;;;;20.98;9.90;;;14.00;99.90;;;13.51;100.00;100787.94;4073213;29;20403;-68
2021/05/08 03:32:28;;;;;;;20.38;8.82;;;13.90;99.90;;;13.58;100.00;100788.91;4071869;29;20519;-68
2021/05/08 03:34:29;;;;;;;21.05;8.63;;;14.00;99.90;;;13.50;100.00;100779.16;4073231;29;20028;-68
2021/05/08 03:36:31;;;;;;;17.75;8.60;;;14.00;99.90;;;13.58;100.00;100779.16;4073375;29;20096;-68
2021/05/08 03:38:32;;;;;;;21.58;10.07;;;14.00;99.90;;;13.49;100.00;100772.22;4073055;29;20040;-68
2021/05/08 03:40:33;;;;;;;21.52;9.48;;;14.00;99.90;;;13.45;100.00;100776.22;4073139;29;20035;-68
2021/05/08 03:42:33;;;;;;;29.30;11.23;;;14.00;99.90;;;13.40;100.00;100759.19;4072010;29;20522;-68
2021/05/08 03:44:34;;;;;;;25.85;10.60;;;14.00;99.90;;;13.40;100.00;100781.22;4073018;29;20028;-68
2021/05/08 03:46:35;;;;;;;23.65;8.52;;;14.00;99.90;;;13.38;100.00;100763.84;4072883;29;20035;-68
2021/05/08 03:48:37;;;;;;;27.77;10.57;;;13.90;99.90;;;13.32;100.00;100769.84;4072825;29;20020;-68
2021/05/08 03:50:38;;;;;;;26.38;9.30;;;14.00;99.90;;;13.25;100.00;100767.06;4073079;29;20067;-68
2021/05/08 03:52:39;;;;;;;21.77;8.90;;;13.90;99.90;;;13.33;100.00;100764.34;4072974;29;20024;-68
2021/05/08 03:54:40;;;;;;;26.33;11.23;;;13.90;99.90;;;13.26;100.00;100766.06;4071651;29;20073;-68
2021/05/08 03:56:41;;;;;;;25.20;10.18;;;13.90;99.90;;;13.23;100.00;100755.81;4073002;29;20422;-68
2021/05/08 03:58:42;;;;;;;20.50;8.75;;;13.90;99.90;;;13.37;100.00;100764.84;4072924;29;20031;-68
2021/05/08 04:00:42;;;;;;;22.80;9.90;;;13.90;99.90;;;13.24;100.00;100760.09;4072673;29;20115;-68
2021/05/08 04:02:43;;;;;;;25.92;8.82;;;13.80;99.90;;;13.37;100.00;100756.91;4072688;29;20492;-68
2021/05/08 04:04:44;;;;;;;24.25;8.77;;;13.90;99.90;;;13.36;100.00;100753.41;4071218;29;20067;-68
2021/05/08 04:06:45;;;;;;;22.00;10.10;;;13.80;99.90;;;13.35;100.00;100759.69;4072810;29;20056;-68
2021/05/08 04:08:48;;;;;;;25.48;9.40;;;13.80;99.90;;;13.38;100.00;100755.91;4062638;29;20108;-68
2021/05/08 04:10:49;;;;;;;19.15;10.20;;;13.90;99.90;;;13.36;100.00;100750.75;4057129;29;20057;-68
2021/05/08 04:12:50;;;;;;;27.25;9.90;;;13.90;99.90;;;13.44;100.00;100756.00;4061899;29;20476;-68
2021/05/08 04:14:52;;;;;;;20.63;8.40;;;13.90;99.90;;;13.40;100.00;100751.25;4072896;29;20039;-68
2021/05/08 04:16:53;;;;;;;20.52;8.88;;;13.90;99.90;;;13.42;100.00;100762.50;4072835;29;20507;-68
2021/05/08 04:18:54;;;;;;;19.58;8.48;;;14.00;99.90;;;13.29;100.00;100742.69;4072276;29;20040;-68
2021/05/08 04:20:55;;;;;;;16.85;7.72;;;13.90;99.90;;;13.42;100.00;100751.88;4071460;29;20087;-68
2021/05/08 04:22:55;;;;;;;20.58;8.75;;;13.80;99.90;;;13.42;100.00;100746.59;4072569;29;20038;-68
2021/05/08 04:24:56;;;;;;;16.20;7.65;;;13.90;99.90;;;13.39;100.00;100758.38;4072411;29;20033;-68
2021/05/08 04:26:57;;;;;;;16.38;8.02;;;13.90;99.90;;;13.37;100.00;100746.28;4072463;29;20122;-68
2021/05/08 04:28:58;;;;;;;19.60;8.13;;;13.90;99.90;;;13.39;100.00;100752.22;4072635;29;20020;-68
2021/05/08 04:30:59;;;;;;;22.65;7.80;;;13.90;99.90;;;13.37;100.00;100752.44;4072535;29;20057;-68
2021/05/08 04:33:00;;;;;;;22.23;10.05;;;13.90;99.90;;;13.32;100.00;100756.59;4072673;29;20048;-68
2021/05/08 04:35:01;;;;;;;13.75;7.00;;;14.00;99.90;;;13.36;100.00;100758.72;4072297;29;20076;-68
2021/05/08 04:37:02;;;;;;;22.58;8.35;;;13.90;99.90;;;13.43;100.00;100754.38;4072782;29;20058;-68
2021/05/08 04:39:03;;;;;;;16.13;7.43;;;13.90;99.90;;;13.49;100.00;100751.03;4072462;29;20032;-68
2021/05/08 04:41:04;;;;;;;16.67;7.60;;;14.00;99.90;;;13.45;100.00;100751.53;4072492;29;20036;-68
2021/05/08 04:43:05;;;;;;;17.15;7.93;;;13.90;99.90;;;13.38;100.00;100750.59;4071782;29;20087;-68
2021/05/08 04:45:07;;;;;;;19.52;7.38;;;14.00;99.90;;;13.32;100.00;100747.63;4072279;29;20075;-68
2021/05/08 04:47:12;;;;;;;15.50;7.55;;;14.00;99.90;;;13.37;100.00;100748.94;4070845;29;20024;-68
2021/05/08 04:49:13;;;;;;;24.75;8.50;;;13.90;99.90;;;13.34;100.00;100749.28;4072342;29;20111;-68
2021/05/08 04:51:14;;;;;;;17.48;8.10;;;14.00;99.90;;;13.39;100.00;100757.53;4072412;29;20035;-68
2021/05/08 04:53:15;;;;;;;18.95;7.88;;;13.90;99.90;;;13.47;100.00;100752.22;4072294;29;20047;-68
2021/05/08 04:55:16;;;;;;;23.25;7.43;;;13.90;99.90;;;13.35;100.00;100754.41;4072422;29;20020;-68
2021/05/08 04:57:17;;;;;;;19.00;7.50;;;14.00;99.90;;;13.23;100.00;100738.06;4072169;29;20042;-69
2021/05/08 04:59:18;;;;;;;17.05;7.35;;;13.90;99.90;;;13.43;100.00;100754.38;4070967;29;20484;-68
2021/05/08 05:01:19;;;;;;;15.95;7.70;;;14.00;99.90;;;13.44;100.00;100756.00;4072212;29;20035;-69
2021/05/08 05:03:20;;;;;;;23.02;8.65;;;14.00;99.90;;;13.40;100.00;100749.44;4072010;29;20036;-69
2021/05/08 05:05:21;;;;;;;21.15;7.60;;;14.00;99.90;;;13.40;100.00;100744.13;4070703;29;20040;-69
2021/05/08 05:07:22;;;;;;;19.02;8.05;;;14.00;99.90;;;13.48;100.00;100759.16;4072000;29;20040;-69
2021/05/08 05:09:23;;;;;;;26.25;7.53;;;14.00;99.90;;;13.47;100.00;100757.50;4057057;29;20488;-68
2021/05/08 05:11:25;;;;;;;20.83;8.30;;;14.00;99.90;;;13.28;100.00;100756.94;4056438;29;20036;-69
2021/05/08 05:13:25;;;;;;;21.52;7.03;;;14.00;99.90;;;13.39;100.00;100766.31;4065916;29;20051;-69
2021/05/08 05:15:27;;;;;;;19.50;6.88;;;14.00;99.90;;;13.42;100.00;100746.59;4072213;29;20476;-68
2021/05/08 05:17:28;;;;;;;19.63;7.90;;;14.00;99.90;;;13.37;100.00;100752.44;4071763;29;20075;-68
2021/05/08 05:19:29;;;;;;;16.13;6.32;;;14.00;99.90;;;13.47;100.00;100755.66;4055038;29;20032;-69
2021/05/08 05:21:30;;;;;;;25.88;7.47;;;14.00;99.90;;;13.36;100.00;100744.63;4086468;29;20031;-68
2021/05/08 05:23:31;;;;;;;19.00;6.35;;;14.10;99.90;;;13.49;100.00;100763.44;4072182;29;20115;-68
2021/05/08 05:25:32;;;;;;;19.13;7.82;;;14.00;99.90;;;13.52;100.00;100755.16;4071836;29;20033;-68
2021/05/08 05:27:33;;;;;;;15.90;6.85;;;14.10;99.90;;;13.49;100.00;100760.81;4072100;29;20032;-69
2021/05/08 05:29:34;;;;;;;19.48;6.68;;;14.10;99.90;;;13.53;100.00;100752.31;4072168;29;20036;-68
2021/05/08 05:31:36;;;;;;;18.23;6.20;;;14.20;99.90;;;13.50;100.00;100751.88;4071967;29;20083;-68
2021/05/08 05:33:37;;;;;;;16.85;6.00;;;14.10;99.90;;;13.53;100.00;100744.38;4071382;29;20494;-69
2021/05/08 05:35:38;;;;;;;12.75;6.40;;;14.20;99.90;;;13.59;100.00;100748.97;4070621;29;20092;-68
2021/05/08 05:37:39;;;;;;;14.07;6.80;;;14.20;99.90;;;13.66;100.00;100757.88;4071986;29;20036;-68
2021/05/08 05:39:40;;;;;;;16.13;6.38;;;14.20;99.90;;;13.62;100.00;100753.13;4071836;29;20123;-68
2021/05/08 05:41:41;;;;;;;15.00;5.53;;;14.20;99.90;;;13.65;100.00;100756.22;4070651;29;20115;-68
2021/05/08 05:43:42;;;;;;;11.50;6.32;;;14.30;99.90;;;13.68;100.00;100755.03;4067358;29;20099;-68
2021/05/08 05:45:42;;;;;;;15.35;5.95;;;14.30;99.90;;;13.72;100.00;100756.34;4071922;29;20028;-68
2021/05/08 05:47:45;;;;;;;17.77;5.72;;;14.30;99.90;;;13.68;100.00;100741.78;4071840;29;20036;-68
2021/05/08 05:49:47;;;;;;;19.05;6.80;;;14.40;99.90;;;13.67;100.00;100756.88;4071597;29;20032;-68
2021/05/08 05:51:48;;;;;;;15.23;5.65;;;14.40;99.90;;;13.71;100.00;100758.16;4072051;29;20256;-69
2021/05/08 05:53:56;;;;;;;15.65;5.35;;;14.40;99.90;;;13.77;100.00;100761.94;4071878;29;20523;-68
2021/05/08 05:55:57;;;;;;;14.98;6.78;;;14.30;99.90;;;13.76;100.00;100750.53;4074662;29;20032;-69
2021/05/08 05:57:58;;;;;;;14.80;5.45;;;14.50;99.90;;;13.86;100.00;100756.41;4073445;29;20035;-69
2021/05/08 05:59:59;;;;;;;14.40;5.50;;;14.50;99.90;;;13.96;100.00;100761.47;4074735;29;20059;-68
2021/05/08 06:02:00;;;;;;;12.45;5.20;;;14.60;99.90;;;13.97;100.00;100752.53;4074586;29;20028;-69
2021/05/08 06:04:01;;;;;;;22.52;7.07;;;14.60;99.90;;;13.98;100.00;100764.78;4074500;29;20399;-68
2021/05/08 06:06:01;;;;;;;12.98;5.63;;;14.60;99.90;;;13.90;100.00;100740.16;4074276;29;20044;-68
2021/05/08 06:08:02;;;;;;;15.48;3.90;;;14.60;99.90;;;13.98;100.00;100759.47;4070320;29;20032;-69
2021/05/08 06:10:06;;;;;;;12.75;4.18;;;14.70;99.90;;;14.06;100.00;100758.59;4059057;29;20168;-68
2021/05/08 06:12:07;;;;;;;11.48;4.22;;;14.70;99.90;;;14.10;100.00;100758.03;4059032;29;20035;-68
2021/05/08 06:14:08;;;;;;;13.00;4.03;;;14.70;99.90;;;14.14;100.00;100759.34;4073613;29;20028;-69
2021/05/08 06:16:08;;;;;;;12.45;4.70;;;14.80;99.90;;;14.04;100.00;100753.44;4074602;29;20036;-68
2021/05/08 06:18:09;;;;;;;15.88;5.45;;;14.80;99.90;;;14.11;100.00;100759.72;4073230;29;20111;-68
2021/05/08 06:20:11;;;;;;;12.15;4.20;;;14.80;99.90;;;13.94;100.00;100763.50;4074535;29;20544;-68
2021/05/08 06:22:12;;;;;;;17.50;4.57;;;14.80;99.90;;;14.08;100.00;100762.72;4074428;29;20507;-68
2021/05/08 06:24:13;;;;;;;13.68;4.60;;;14.70;99.90;;;14.06;100.00;100762.06;4074374;29;20075;-68
2021/05/08 06:26:14;;;;;;;12.07;4.80;;;14.80;99.90;;;14.05;100.00;100756.94;4074613;29;20047;-68
2021/05/08 06:28:17;;;;;;;12.50;5.28;;;14.80;99.90;;;14.08;100.00;100765.38;4073026;29;20028;-68
2021/05/08 06:30:18;;;;;;;12.07;4.70;;;14.80;99.90;;;14.12;100.00;100749.94;4074313;29;20155;-68
2021/05/08 06:32:19;;;;;;;10.85;4.18;;;14.90;99.90;;;14.09;100.00;100760.88;4074405;29;20036;-68
2021/05/08 06:34:20;;;;;;;11.57;3.95;;;14.80;99.90;;;14.06;100.00;100761.25;4074152;29;20051;-68
2021/05/08 06:36:21;;;;;;;8.82;4.15;;;14.80;99.90;;;14.05;100.00;100755.13;4074294;29;20032;-68
2021/05/08 06:38:23;;;;;;;12.63;4.75;;;14.80;99.90;;;14.17;100.00;100758.16;4073000;29;20031;-68
2021/05/08 06:40:24;;;;;;;12.35;4.90;;;14.80;99.90;;;14.11;100.00;100759.72;4074295;29;20533;-68
2021/05/08 06:42:25;;;;;;;14.57;4.32;;;14.90;99.90;;;14.11;100.00;100750.91;4072981;29;20052;-68
2021/05/08 06:44:26;;;;;;;10.45;4.18;;;15.00;99.90;;;14.27;100.00;100758.75;4072790;29;20036;-68
2021/05/08 06:46:27;;;;;;;13.02;4.68;;;15.00;99.90;;;14.31;100.00;100770.63;4072650;29;20032;-68
2021/05/08 06:48:28;;;;;;;13.35;5.00;;;15.10;99.90;;;14.28;100.00;100761.22;4073782;29;20031;-68
2021/05/08 06:50:29;;;;;;;11.00;4.88;;;15.20;99.90;;;14.42;100.00;100778.22;4072940;29;20044;-68
2021/05/08 06:52:30;;;;;;;10.85;3.88;;;15.20;99.90;;;14.45;100.00;100771.72;4074007;29;20036;-68
2021/05/08 06:54:30;;;;;;;11.75;4.68;;;15.40;99.90;;;14.53;99.89;100772.47;4072939;29;20064;-68
2021/05/08 06:56:31;;;;;;;13.00;4.82;;;15.40;99.90;;;14.66;99.41;100764.72;4074002;29;20028;-68
2021/05/08 06:58:32;;;;;;;12.48;4.40;;;15.60;99.90;;;14.81;97.86;100770.03;4073980;29;20024;-68
2021/05/08 07:00:33;;;;;;;9.30;4.40;;;15.70;99.90;;;14.80;98.36;100773.69;4073761;29;20036;-68
2021/05/08 07:02:34;;;;;;;17.35;4.85;;;15.80;99.90;;;14.82;97.84;100753.06;4073835;29;20515;-68
2021/05/08 07:04:35;;;;;;;10.77;4.00;;;16.00;99.90;;;15.02;97.13;100763.97;4073249;29;20072;-68
2021/05/08 07:06:36;;;;;;;8.75;3.95;;;16.00;99.90;;;15.11;96.66;100771.69;4073161;29;20028;-68
2021/05/08 07:08:37;;;;;;;11.90;4.18;;;16.20;99.90;;;15.14;96.64;100771.28;4064851;29;20392;-68
2021/05/08 07:10:50;;;;;;;10.00;4.03;;;16.20;99.90;;;15.24;95.72;100774.50;4058101;29;20028;-68
2021/05/08 07:12:51;;;;;;;9.98;4.65;;;16.30;99.90;;;15.22;95.49;100770.38;4062656;29;20024;-68
2021/05/08 07:14:52;;;;;;;13.13;4.05;;;16.40;99.90;;;15.08;95.73;100766.72;4073632;29;20035;-68
2021/05/08 07:16:53;;;;;;;15.52;4.25;;;16.30;99.90;;;14.97;95.43;100769.84;4073575;29;20060;-68
2021/05/08 07:18:53;;;;;;;13.75;4.07;;;16.20;99.90;;;15.04;95.38;100773.41;4073122;29;20185;-68
2021/05/08 07:20:54;;;;;;;12.57;3.92;;;16.10;99.90;;;15.05;95.07;100775.06;4073850;29;20032;-68
2021/05/08 07:22:55;;;;;;;11.35;4.20;;;16.10;99.90;;;15.01;95.75;100775.59;4073364;29;20028;-68
2021/05/08 07:24:56;;;;;;;17.02;5.07;;;16.10;99.90;;;15.06;95.47;100766.06;4072170;29;20047;-68
2021/05/08 07:26:57;;;;;;;15.15;4.25;;;16.20;99.90;;;15.15;95.09;100753.50;4073246;29;20039;-68
2021/05/08 07:29:02;;;;;;;13.35;4.57;;;16.20;99.90;;;15.22;95.12;100762.41;4073419;29;20547;-68
2021/05/08 07:31:03;;;;;;;11.50;4.25;;;16.20;99.90;;;15.33;95.14;100760.09;4073362;29;20125;-68
2021/05/08 07:33:05;;;;;;;10.80;4.15;;;16.40;99.90;;;15.29;94.82;100750.03;4073305;29;20423;-68
2021/05/08 07:35:07;;;;;;;17.15;4.28;;;16.40;99.90;;;15.52;93.46;100761.38;4073252;29;20110;-68
2021/05/08 07:37:08;;;;;;;12.43;4.10;;;16.60;99.90;;;15.52;93.42;100755.22;4073105;29;20088;-68
2021/05/08 07:39:09;;;;;;;10.77;4.50;;;16.70;99.90;;;15.69;92.76;100760.13;4071924;29;20511;-68
2021/05/08 07:41:11;;;;;;;11.38;3.67;;;16.80;99.90;;;15.57;92.17;100752.81;4073046;29;20032;-68
2021/05/08 07:43:11;;;;;;;11.23;3.80;;;16.90;99.90;;;15.68;92.12;100765.63;4072992;29;20028;-68
2021/05/08 07:45:13;;;;;;;12.77;5.18;;;16.90;99.90;;;15.78;90.73;100766.13;4071961;29;20036;-68
2021/05/08 07:47:14;;;;;;;7.28;3.67;;;17.00;99.90;;;15.90;91.23;100756.63;4071737;29;20020;-68
2021/05/08 07:49:14;;;;;;;10.65;3.72;;;17.00;99.90;;;16.01;90.10;100756.94;4087211;29;20046;-68
2021/05/08 07:51:15;;;;;;;9.90;3.72;;;17.20;99.90;;;16.00;89.18;100754.50;4072895;29;20070;-69
2021/05/08 07:53:16;;;;;;;12.50;4.47;;;17.20;99.90;;;15.98;90.87;100751.19;4073163;29;20110;-68
2021/05/08 07:55:17;;;;;;;7.93;3.75;;;17.20;99.90;;;16.02;90.70;100744.47;4072818;29;20083;-68
2021/05/08 07:57:18;;;;;;;11.48;3.42;;;17.30;99.90;;;16.21;90.61;100754.47;4073105;29;20043;-68
2021/05/08 07:59:19;;;;;;;11.45;3.50;;;17.40;99.90;;;15.97;88.98;100733.59;4072800;29;20112;-68
2021/05/08 08:01:21;;;;;;;10.63;3.85;;;17.50;99.90;;;15.86;90.29;100752.72;4072900;29;20028;-68
2021/05/08 08:03:22;;;;;;;12.02;4.32;;;17.20;99.90;;;16.10;89.01;100746.19;4072719;29;20110;-68
2021/05/08 08:05:23;;;;;;;10.10;3.30;;;17.30;99.90;;;16.08;89.07;100738.38;4072736;29;20049;-68
2021/05/08 08:07:24;;;;;;;13.20;3.95;;;17.40;99.90;;;16.41;86.91;100747.47;4084909;29;20146;-68
2021/05/08 08:09:25;;;;;;;7.00;4.32;;;17.60;99.90;;;16.42;87.73;100742.97;4057737;29;20032;-68
2021/05/08 08:11:26;;;;;;;11.02;3.42;;;17.70;99.90;;;16.27;86.82;100736.91;4057061;29;20441;-69
2021/05/08 08:13:27;;;;;;;8.40;3.38;;;17.60;99.90;;;16.40;88.08;100744.97;4066447;29;20032;-68